createdAt,value
2023-02-19T00:01:59.634Z,6.88
2023-02-19T00:04:27.860Z,6.78
2023-02-19T00:06:55.777Z,6.81
2023-02-19T00:09:23.889Z,6.73
2023-02-19T00:11:53.277Z,6.57
2023-02-19T00:14:22.417Z,6.52
2023-02-19T00:16:50.641Z,6.59
2023-02-19T00:19:21.847Z,6.59
2023-02-19T00:21:51.849Z,6.58
2023-02-19T00:24:22.762Z,6.52
2023-02-19T00:26:51.033Z,6.49
2023-02-19T00:29:21.354Z,6.64
2023-02-19T00:31:51.430Z,6.74
2023-02-19T00:34:20.903Z,6.76
2023-02-19T00:36:48.875Z,6.64
2023-02-19T00:39:18.702Z,6.67
2023-02-19T00:41:47.092Z,6.70
2023-02-19T00:44:15.799Z,6.59
2023-02-19T00:46:45.025Z,6.62
2023-02-19T00:49:18.263Z,6.43
2023-02-19T00:51:51.050Z,6.48
2023-02-19T00:54:20.096Z,6.24
2023-02-19T00:56:48.394Z,6.45
2023-02-19T00:59:16.636Z,6.36
2023-02-19T01:01:45.570Z,6.42
2023-02-19T01:04:13.694Z,6.47
2023-02-19T01:06:42.262Z,6.44
2023-02-19T01:09:16.983Z,6.38
2023-02-19T01:11:47.058Z,6.45
2023-02-19T01:14:17.686Z,6.45
2023-02-19T01:16:46.909Z,6.52
2023-02-19T01:19:14.864Z,6.39
2023-02-19T01:21:53.546Z,6.31
2023-02-19T01:24:23.003Z,6.20
2023-02-19T01:26:52.061Z,6.15
2023-02-19T01:29:19.960Z,6.22
2023-02-19T01:31:48.204Z,6.24
2023-02-19T01:34:16.361Z,6.24
2023-02-19T01:36:44.323Z,6.17
2023-02-19T01:39:15.692Z,6.21
2023-02-19T01:41:46.300Z,6.04
2023-02-19T01:44:47.111Z,5.89
2023-02-19T01:47:17.339Z,6.12
2023-02-19T01:49:49.036Z,6.17
2023-02-19T01:52:20.797Z,6.12
2023-02-19T01:54:51.192Z,6.02
2023-02-19T01:57:23.252Z,6.02
2023-02-19T01:59:55.227Z,6.25
2023-02-19T02:02:25.138Z,5.99
2023-02-19T02:04:53.538Z,6.09
2023-02-19T02:07:39.252Z,6.03
2023-02-19T02:10:22.869Z,5.89
2023-02-19T02:12:57.519Z,5.92
2023-02-19T02:15:28.085Z,5.89
2023-02-19T02:18:02.190Z,5.80
2023-02-19T02:20:41.017Z,5.93
2023-02-19T02:23:13.521Z,5.97
2023-02-19T02:26:02.273Z,6.08
2023-02-19T02:28:54.124Z,5.91
2023-02-19T02:31:29.845Z,5.98
2023-02-19T02:34:02.890Z,5.95
2023-02-19T02:36:35.002Z,5.97
2023-02-19T02:39:05.209Z,5.95
2023-02-19T02:41:34.435Z,6.04
2023-02-19T02:44:04.235Z,6.04
2023-02-19T02:46:38.037Z,6.02
2023-02-19T02:49:16.135Z,6.08
2023-02-19T02:51:48.642Z,6.09
2023-02-19T02:54:38.872Z,5.96
2023-02-19T02:57:09.356Z,5.97
2023-02-19T02:59:40.904Z,5.87
2023-02-19T03:02:14.760Z,6.04
2023-02-19T03:05:09.278Z,5.99
2023-02-19T03:07:47.688Z,5.87
2023-02-19T03:10:20.199Z,5.95
2023-02-19T03:13:09.900Z,6.07
2023-02-19T03:16:02.531Z,6.21
2023-02-19T03:18:52.361Z,6.12
2023-02-19T03:21:24.322Z,6.24
2023-02-19T03:24:10.885Z,6.35
2023-02-19T03:26:40.237Z,6.32
2023-02-19T03:29:29.047Z,6.24
2023-02-19T03:32:00.603Z,6.26
2023-02-19T03:34:35.908Z,6.28
2023-02-19T03:37:11.703Z,6.26
2023-02-19T03:39:44.501Z,6.12
2023-02-19T03:42:21.020Z,6.25
2023-02-19T03:45:02.239Z,6.27
2023-02-19T03:47:32.663Z,6.31
2023-02-19T03:50:11.739Z,6.07
2023-02-19T03:52:44.045Z,6.39
2023-02-19T03:55:17.609Z,6.64
2023-02-19T03:57:52.728Z,6.65
2023-02-19T04:00:28.510Z,6.61
2023-02-19T04:03:03.852Z,6.41
2023-02-19T04:05:36.895Z,6.28
2023-02-19T04:08:10.284Z,5.98
2023-02-19T04:10:39.819Z,6.07
2023-02-19T04:13:12.799Z,5.95
2023-02-19T04:15:44.051Z,6.00
2023-02-19T04:18:16.744Z,5.95
2023-02-19T04:20:48.862Z,6.18
2023-02-19T04:23:20.636Z,6.24
2023-02-19T04:25:52.111Z,6.20
2023-02-19T04:28:20.110Z,5.89
2023-02-19T04:30:48.126Z,5.73
2023-02-19T04:33:16.188Z,5.24
2023-02-19T04:35:44.039Z,5.20
2023-02-19T04:38:14.484Z,5.32
2023-02-19T04:40:42.472Z,5.19
2023-02-19T04:43:10.354Z,5.32
2023-02-19T04:45:39.064Z,5.50
2023-02-19T04:48:07.140Z,5.72
2023-02-19T04:50:35.032Z,5.91
2023-02-19T04:53:02.885Z,5.94
2023-02-19T04:55:32.106Z,5.89
2023-02-19T04:57:59.961Z,5.87
2023-02-19T05:00:27.844Z,5.92
2023-02-19T05:02:55.709Z,6.05
2023-02-19T05:05:23.574Z,6.13
2023-02-19T05:07:51.434Z,5.99
2023-02-19T05:10:19.378Z,5.86
2023-02-19T05:12:48.612Z,5.87
2023-02-19T05:15:16.631Z,5.67
2023-02-19T05:17:44.474Z,5.64
2023-02-19T05:20:17.236Z,5.61
2023-02-19T05:22:45.167Z,5.89
2023-02-19T05:25:13.002Z,5.98
2023-02-19T05:27:41.168Z,6.24
2023-02-19T05:30:12.329Z,6.33
2023-02-19T05:32:40.388Z,6.54
2023-02-19T05:35:08.302Z,6.67
2023-02-19T05:37:36.194Z,6.97
2023-02-19T05:40:04.241Z,6.90
2023-02-19T05:42:32.083Z,6.98
2023-02-19T05:44:59.910Z,6.87
2023-02-19T05:47:29.223Z,6.97
2023-02-19T05:49:57.054Z,6.95
2023-02-19T05:52:24.958Z,6.89
2023-02-19T05:54:52.898Z,7.11
2023-02-19T05:57:21.641Z,7.10
2023-02-19T05:59:49.585Z,7.16
2023-02-19T06:02:17.641Z,7.25
2023-02-19T06:04:46.886Z,7.33
2023-02-19T06:07:14.745Z,7.38
2023-02-19T06:09:42.586Z,7.45
2023-02-19T06:12:10.425Z,7.22
2023-02-19T06:14:38.326Z,7.46
2023-02-19T06:17:06.196Z,7.56
2023-02-19T06:19:34.090Z,7.65
2023-02-19T06:22:03.598Z,7.61
2023-02-19T06:24:34.675Z,7.69
2023-02-19T06:27:02.946Z,7.77
2023-02-19T06:29:32.534Z,7.84
2023-02-19T06:32:00.562Z,7.62
2023-02-19T06:34:28.538Z,7.71
2023-02-19T06:36:57.896Z,7.84
2023-02-19T06:39:27.810Z,7.92
2023-02-19T06:41:59.051Z,7.98
2023-02-19T06:44:26.963Z,8.09
2023-02-19T06:46:56.688Z,8.21
2023-02-19T06:49:25.071Z,8.26
2023-02-19T06:51:52.948Z,8.31
2023-02-19T06:54:20.816Z,8.39
2023-02-19T06:56:50.110Z,8.42
2023-02-19T06:59:17.994Z,8.43
2023-02-19T07:01:46.482Z,8.37
2023-02-19T07:04:16.033Z,8.43
2023-02-19T07:06:44.557Z,8.41
2023-02-19T07:09:12.666Z,8.43
2023-02-19T07:11:41.261Z,8.46
2023-02-19T07:14:15.741Z,8.59
2023-02-19T07:16:44.669Z,8.65
2023-02-19T07:19:13.050Z,8.70
2023-02-19T07:21:42.176Z,8.84
2023-02-19T07:24:11.205Z,8.91
2023-02-19T07:26:39.050Z,8.99
2023-02-19T07:29:07.591Z,9.11
2023-02-19T07:31:37.013Z,9.26
2023-02-19T07:34:04.921Z,9.33
2023-02-19T07:36:32.813Z,9.48
2023-02-19T07:39:01.392Z,9.53
2023-02-19T07:41:29.574Z,9.69
2023-02-19T07:43:57.597Z,9.81
2023-02-19T07:46:26.260Z,9.90
2023-02-19T07:48:55.551Z,10.04
2023-02-19T07:51:23.927Z,10.15
2023-02-19T07:53:51.946Z,10.19
2023-02-19T07:56:20.694Z,10.29
2023-02-19T07:58:48.640Z,10.35
2023-02-19T08:01:18.566Z,10.39
2023-02-19T08:03:47.054Z,10.52
2023-02-19T08:06:17.415Z,10.58
2023-02-19T08:08:45.397Z,10.67
2023-02-19T08:11:30.578Z,10.84
2023-02-19T08:13:58.512Z,10.94
2023-02-19T08:16:42.144Z,10.97
2023-02-19T08:19:11.157Z,11.11
2023-02-19T08:21:40.461Z,11.17
2023-02-19T08:24:08.543Z,11.19
2023-02-19T08:26:37.012Z,11.40
2023-02-19T08:29:05.032Z,11.47
2023-02-19T08:31:33.229Z,11.47
2023-02-19T08:34:01.348Z,11.61
2023-02-19T08:36:29.273Z,11.72
2023-02-19T08:38:58.645Z,11.77
2023-02-19T08:41:26.510Z,11.74
2023-02-19T08:43:54.425Z,11.75
2023-02-19T08:46:22.798Z,11.75
2023-02-19T08:48:51.036Z,11.86
2023-02-19T08:51:19.035Z,11.90
2023-02-19T08:53:47.176Z,12.15
2023-02-19T08:56:18.607Z,12.39
2023-02-19T08:58:47.008Z,12.65
2023-02-19T09:01:18.482Z,12.81
2023-02-19T09:03:46.762Z,12.98
2023-02-19T09:06:17.618Z,13.05
2023-02-19T09:08:45.794Z,12.95
2023-02-19T09:11:14.076Z,13.11
2023-02-19T09:13:43.900Z,13.11
2023-02-19T09:16:11.891Z,13.05
2023-02-19T09:18:39.745Z,13.08
2023-02-19T09:21:07.854Z,13.11
2023-02-19T09:23:36.955Z,13.17
2023-02-19T09:26:08.597Z,13.24
2023-02-19T09:28:38.372Z,13.39
2023-02-19T09:31:09.130Z,13.38
2023-02-19T09:33:37.414Z,13.38
2023-02-19T09:36:05.734Z,13.35
2023-02-19T09:38:33.748Z,13.44
2023-02-19T09:41:08.983Z,13.46
2023-02-19T09:43:38.154Z,13.61
2023-02-19T09:46:17.475Z,13.85
2023-02-19T09:48:45.414Z,14.10
2023-02-19T09:51:15.164Z,14.36
2023-02-19T09:53:46.928Z,14.50
2023-02-19T09:56:14.905Z,14.83
2023-02-19T09:58:49.209Z,15.26
2023-02-19T10:01:19.950Z,15.19
2023-02-19T10:03:49.943Z,15.34
2023-02-19T10:06:21.875Z,15.30
2023-02-19T10:08:51.979Z,15.62
2023-02-19T10:11:20.713Z,15.98
2023-02-19T10:13:52.881Z,16.44
2023-02-19T10:16:27.493Z,16.15
2023-02-19T10:18:56.570Z,16.49
2023-02-19T10:21:27.209Z,16.56
2023-02-19T10:23:58.997Z,16.93
2023-02-19T10:26:27.584Z,17.19
2023-02-19T10:28:56.387Z,17.26
2023-02-19T10:31:27.021Z,16.99
2023-02-19T10:33:56.604Z,16.52
2023-02-19T10:36:31.871Z,16.71
2023-02-19T10:39:01.587Z,16.98
2023-02-19T10:41:31.006Z,17.07
2023-02-19T10:44:06.624Z,17.32
2023-02-19T10:46:39.475Z,17.19
2023-02-19T10:49:20.837Z,17.41
2023-02-19T10:51:49.091Z,17.55
2023-02-19T10:54:20.261Z,17.88
2023-02-19T10:56:48.280Z,18.08
2023-02-19T10:59:24.597Z,17.97
2023-02-19T11:01:58.727Z,18.53
2023-02-19T11:04:29.195Z,18.30
2023-02-19T11:06:57.573Z,18.12
2023-02-19T11:09:29.240Z,17.58
2023-02-19T11:11:59.479Z,17.88
2023-02-19T11:14:30.942Z,18.00
2023-02-19T11:17:03.919Z,18.48
2023-02-19T11:19:37.740Z,18.68
2023-02-19T11:22:21.419Z,18.91
2023-02-19T11:24:53.861Z,19.06
2023-02-19T11:27:25.823Z,18.82
2023-02-19T11:29:53.714Z,18.96
2023-02-19T11:32:29.442Z,18.59
2023-02-19T11:35:17.870Z,19.01
2023-02-19T11:37:57.132Z,19.35
2023-02-19T11:40:44.047Z,19.33
2023-02-19T11:43:29.462Z,19.20
2023-02-19T11:46:04.556Z,18.93
2023-02-19T11:48:43.655Z,18.94
2023-02-19T11:51:35.393Z,18.99
2023-02-19T11:54:20.705Z,19.22
2023-02-19T11:56:54.957Z,19.35
2023-02-19T11:59:31.489Z,19.28
2023-02-19T12:02:28.952Z,19.46
2023-02-19T12:05:34.986Z,19.70
2023-02-19T12:08:43.281Z,20.18
2023-02-19T12:11:42.086Z,20.37
2023-02-19T12:14:39.642Z,20.67
2023-02-19T12:17:15.297Z,20.75
2023-02-19T12:20:05.913Z,20.75
2023-02-19T12:22:44.990Z,20.57
2023-02-19T12:25:39.121Z,20.73
2023-02-19T12:28:21.550Z,20.37
2023-02-19T12:31:16.841Z,20.42
2023-02-19T12:34:09.194Z,20.78
2023-02-19T12:36:46.868Z,21.33
2023-02-19T12:39:28.968Z,21.29
2023-02-19T12:42:04.792Z,21.42
2023-02-19T12:44:44.217Z,21.22
2023-02-19T12:47:20.709Z,21.17
2023-02-19T12:49:51.997Z,21.02
2023-02-19T12:52:26.219Z,21.60
2023-02-19T12:55:00.859Z,21.52
2023-02-19T12:57:36.026Z,21.94
2023-02-19T13:00:12.466Z,21.66
2023-02-19T13:02:46.408Z,22.49
2023-02-19T13:05:24.162Z,23.29
2023-02-19T13:08:01.560Z,23.58
2023-02-19T13:10:40.455Z,23.49
2023-02-19T13:13:17.386Z,23.89
2023-02-19T13:15:51.720Z,23.86
2023-02-19T13:18:23.632Z,23.92
2023-02-19T13:20:55.341Z,24.18
2023-02-19T13:23:45.653Z,24.09
2023-02-19T13:26:39.162Z,24.67
2023-02-19T13:29:20.874Z,23.58
2023-02-19T13:32:11.655Z,24.05
2023-02-19T13:34:54.840Z,23.66
2023-02-19T13:37:23.925Z,23.93
2023-02-19T13:39:54.971Z,24.55
2023-02-19T13:42:29.478Z,24.46
2023-02-19T13:45:01.858Z,24.51
2023-02-19T13:48:00.869Z,24.85
2023-02-19T13:50:30.417Z,25.29
2023-02-19T13:52:59.138Z,24.45
2023-02-19T13:55:51.911Z,24.29
2023-02-19T13:58:59.316Z,23.20
2023-02-19T14:02:11.854Z,22.66
2023-02-19T14:05:00.090Z,21.96
2023-02-19T14:07:53.206Z,20.72
2023-02-19T14:11:07.958Z,20.93
2023-02-19T14:14:06.809Z,20.60
2023-02-19T14:17:06.598Z,20.66
2023-02-19T14:20:01.685Z,20.67
2023-02-19T14:23:03.920Z,20.57
2023-02-19T14:25:45.218Z,20.58
2023-02-19T14:28:36.326Z,20.59
2023-02-19T14:31:17.616Z,20.53
2023-02-19T14:33:48.820Z,20.99
2023-02-19T14:36:46.665Z,21.53
2023-02-19T14:39:18.577Z,21.75
2023-02-19T14:41:49.310Z,21.80
2023-02-19T14:44:21.062Z,21.65
2023-02-19T14:46:56.220Z,21.61
2023-02-19T14:49:31.189Z,20.90
2023-02-19T14:52:07.893Z,21.05
2023-02-19T14:54:46.612Z,21.01
2023-02-19T14:57:23.312Z,21.66
2023-02-19T14:59:56.112Z,22.04
2023-02-19T15:02:26.311Z,22.12
2023-02-19T15:04:57.796Z,21.73
2023-02-19T15:07:29.229Z,21.30
2023-02-19T15:10:04.904Z,21.10
2023-02-19T15:12:40.483Z,20.81
2023-02-19T15:15:09.384Z,20.53
2023-02-19T15:17:42.316Z,20.17
2023-02-19T15:20:16.490Z,20.02
2023-02-19T15:22:44.481Z,19.88
2023-02-19T15:25:21.351Z,19.65
2023-02-19T15:27:51.688Z,19.33
2023-02-19T15:30:23.276Z,19.13
2023-02-19T15:32:57.725Z,18.84
2023-02-19T15:35:34.810Z,18.84
2023-02-19T15:38:06.476Z,18.56
2023-02-19T15:40:38.119Z,18.32
2023-02-19T15:43:08.037Z,18.27
2023-02-19T15:45:46.944Z,18.13
2023-02-19T15:48:21.394Z,18.03
2023-02-19T15:51:08.556Z,17.88
2023-02-19T15:53:42.107Z,17.85
2023-02-19T15:56:13.374Z,17.85
2023-02-19T15:58:48.016Z,17.76
2023-02-19T16:01:20.876Z,17.72
2023-02-19T16:03:50.674Z,17.77
2023-02-19T16:06:19.420Z,17.35
2023-02-19T16:09:02.158Z,17.02
2023-02-19T16:11:39.405Z,16.76
2023-02-19T16:14:24.798Z,16.45
2023-02-19T16:16:56.664Z,16.56
2023-02-19T16:19:28.720Z,16.33
2023-02-19T16:22:02.942Z,16.35
2023-02-19T16:24:35.167Z,16.23
2023-02-19T16:27:05.225Z,16.16
2023-02-19T16:29:34.788Z,16.06
2023-02-19T16:32:06.081Z,16.03
2023-02-19T16:34:42.911Z,15.90
2023-02-19T16:37:37.472Z,15.93
2023-02-19T16:41:02.736Z,15.81
2023-02-19T16:43:39.712Z,15.61
2023-02-19T16:46:12.017Z,15.59
2023-02-19T16:48:40.217Z,15.61
2023-02-19T16:51:13.017Z,15.66
2023-02-19T16:53:43.954Z,15.62
2023-02-19T16:56:18.572Z,15.69
2023-02-19T16:58:46.465Z,15.73
2023-02-19T17:01:15.359Z,15.71
2023-02-19T17:03:45.652Z,15.36
2023-02-19T17:06:17.485Z,15.13
2023-02-19T17:08:48.312Z,15.10
2023-02-19T17:11:18.313Z,15.17
2023-02-19T17:13:47.948Z,15.18
2023-02-19T17:16:20.428Z,15.14
2023-02-19T17:18:50.379Z,15.09
2023-02-19T17:21:23.230Z,15.06
2023-02-19T17:23:51.334Z,14.88
2023-02-19T17:26:21.131Z,14.67
2023-02-19T17:28:51.507Z,14.67
2023-02-19T17:31:22.156Z,14.62
2023-02-19T17:33:54.449Z,14.64
2023-02-19T17:36:26.846Z,14.45
2023-02-19T17:38:55.151Z,14.22
2023-02-19T17:41:23.784Z,14.14
2023-02-19T17:43:52.919Z,13.82
2023-02-19T17:46:23.365Z,14.02
2023-02-19T17:48:53.168Z,13.98
2023-02-19T17:51:21.571Z,13.90
2023-02-19T17:53:50.842Z,13.84
2023-02-19T17:56:21.248Z,13.76
2023-02-19T17:58:49.175Z,13.73
2023-02-19T18:01:17.391Z,13.64
2023-02-19T18:03:48.300Z,13.56
2023-02-19T18:06:19.920Z,13.49
2023-02-19T18:08:51.337Z,13.56
2023-02-19T18:11:22.737Z,13.53
2023-02-19T18:13:54.834Z,13.48
2023-02-19T18:16:26.374Z,13.45
2023-02-19T18:18:55.107Z,13.32
2023-02-19T18:21:25.461Z,13.45
2023-02-19T18:23:55.232Z,13.24
2023-02-19T18:26:24.801Z,13.08
2023-02-19T18:29:18.873Z,13.34
2023-02-19T18:31:47.157Z,13.16
2023-02-19T18:34:19.140Z,13.47
2023-02-19T18:36:48.272Z,13.20
2023-02-19T18:39:19.749Z,13.23
2023-02-19T18:41:49.252Z,13.33
2023-02-19T18:44:36.508Z,13.30
2023-02-19T18:47:06.243Z,13.21
2023-02-19T18:49:34.792Z,13.01
2023-02-19T18:52:12.702Z,13.28
2023-02-19T18:54:52.840Z,13.22
2023-02-19T18:57:24.834Z,12.99
2023-02-19T18:59:57.156Z,13.24
2023-02-19T19:02:25.735Z,13.03
2023-02-19T19:04:57.588Z,13.22
2023-02-19T19:07:35.868Z,13.01
2023-02-19T19:10:06.442Z,12.63
2023-02-19T19:12:43.365Z,12.99
2023-02-19T19:15:27.311Z,12.99
2023-02-19T19:17:56.049Z,12.81
2023-02-19T19:20:26.724Z,12.57
2023-02-19T19:22:55.590Z,12.70
2023-02-19T19:25:28.312Z,12.70
2023-02-19T19:27:57.597Z,12.39
2023-02-19T19:30:26.087Z,12.58
2023-02-19T19:32:54.575Z,12.50
2023-02-19T19:35:26.156Z,12.24
2023-02-19T19:37:54.601Z,12.49
2023-02-19T19:40:24.229Z,12.41
2023-02-19T19:42:55.748Z,12.43
2023-02-19T19:45:24.191Z,12.15
2023-02-19T19:47:53.095Z,12.48
2023-02-19T19:50:21.993Z,12.42
2023-02-19T19:52:55.011Z,12.21
2023-02-19T19:55:24.377Z,12.50
2023-02-19T19:57:53.962Z,12.53
2023-02-19T20:00:25.403Z,12.51
2023-02-19T20:02:56.337Z,12.52
2023-02-19T20:05:28.757Z,12.48
2023-02-19T20:07:57.023Z,12.51
2023-02-19T20:10:26.323Z,12.58
2023-02-19T20:12:54.544Z,12.23
2023-02-19T20:15:25.196Z,12.47
2023-02-19T20:17:56.011Z,12.56
2023-02-19T20:20:24.383Z,12.62
2023-02-19T20:22:52.982Z,12.59
2023-02-19T20:25:22.398Z,12.53
2023-02-19T20:27:54.727Z,12.54
2023-02-19T20:30:24.700Z,12.50
2023-02-19T20:32:53.545Z,12.38
2023-02-19T20:35:22.046Z,12.40
2023-02-19T20:37:50.356Z,12.45
2023-02-19T20:40:19.300Z,12.45
2023-02-19T20:42:47.242Z,12.42
2023-02-19T20:45:17.852Z,12.43
2023-02-19T20:47:45.960Z,12.40
2023-02-19T20:50:13.887Z,12.38
2023-02-19T20:52:41.922Z,12.35
2023-02-19T20:55:10.796Z,12.34
2023-02-19T20:57:39.942Z,12.30
2023-02-19T21:00:10.641Z,11.99
2023-02-19T21:02:39.919Z,12.29
2023-02-19T21:05:09.512Z,12.27
2023-02-19T21:07:39.858Z,12.25
2023-02-19T21:10:09.244Z,12.14
2023-02-19T21:12:37.246Z,12.19
2023-02-19T21:15:05.772Z,12.17
2023-02-19T21:17:34.033Z,12.12
2023-02-19T21:20:03.307Z,12.01
2023-02-19T21:22:34.007Z,11.97
2023-02-19T21:25:02.130Z,12.01
2023-02-19T21:27:30.190Z,11.96
2023-02-19T21:30:00.887Z,11.97
2023-02-19T21:32:29.215Z,11.94
2023-02-19T21:34:57.193Z,11.88
2023-02-19T21:37:27.039Z,11.69
2023-02-19T21:40:02.114Z,11.66
2023-02-19T21:42:33.564Z,11.71
2023-02-19T21:45:01.783Z,11.39
2023-02-19T21:47:29.849Z,11.67
2023-02-19T21:49:59.314Z,11.31
2023-02-19T21:52:28.929Z,11.54
2023-02-19T21:54:56.826Z,11.54
2023-02-19T21:57:25.081Z,11.51
2023-02-19T21:59:53.514Z,11.48
2023-02-19T22:02:22.199Z,11.44
2023-02-19T22:04:58.311Z,11.32
2023-02-19T22:07:28.440Z,11.29
2023-02-19T22:09:56.618Z,11.29
2023-02-19T22:12:25.007Z,11.20
2023-02-19T22:14:53.104Z,11.27
2023-02-19T22:17:21.359Z,11.18
2023-02-19T22:19:49.593Z,11.09
2023-02-19T22:22:18.037Z,10.94
2023-02-19T22:24:50.405Z,10.79
2023-02-19T22:27:18.643Z,10.78
2023-02-19T22:29:46.918Z,10.84
2023-02-19T22:32:15.358Z,10.72
2023-02-19T22:34:43.975Z,10.76
2023-02-19T22:37:12.059Z,10.53
2023-02-19T22:39:40.335Z,10.59
2023-02-19T22:42:09.856Z,10.84
2023-02-19T22:44:38.444Z,10.46
2023-02-19T22:47:06.759Z,10.37
2023-02-19T22:49:34.908Z,10.67
2023-02-19T22:52:07.603Z,10.62
2023-02-19T22:54:36.348Z,10.56
2023-02-19T22:57:05.122Z,10.18
2023-02-19T22:59:34.776Z,10.43
2023-02-19T23:02:02.888Z,10.30
2023-02-19T23:04:31.494Z,10.24
2023-02-19T23:06:59.572Z,10.20
2023-02-19T23:09:32.074Z,10.27
2023-02-19T23:12:04.851Z,10.36
2023-02-19T23:14:34.961Z,10.21
2023-02-19T23:17:03.186Z,10.40
2023-02-19T23:19:31.427Z,10.28
2023-02-19T23:22:01.208Z,10.30
2023-02-19T23:24:29.475Z,9.90
2023-02-19T23:26:59.723Z,9.91
2023-02-19T23:29:29.739Z,10.18
2023-02-19T23:32:00.430Z,10.11
2023-02-19T23:34:30.484Z,9.78
2023-02-19T23:36:59.703Z,9.83
2023-02-19T23:39:27.982Z,10.14
2023-02-19T23:41:58.064Z,10.11
2023-02-19T23:44:27.167Z,9.92
2023-02-19T23:46:55.347Z,10.09
2023-02-19T23:49:27.555Z,10.04
2023-02-19T23:51:56.845Z,9.76
2023-02-19T23:54:25.975Z,9.67
2023-02-19T23:56:54.208Z,9.98
2023-02-19T23:59:22.443Z,9.57
